Time;durP1;ratioP1;P1;durP2;ratioP2;P2;SDS_P1;SDS_P2;PMS_P1;PMS_P2;Temp;Humidity;BMP_temperature;BMP_pressure;BME280_temperature;BME280_humidity;BME280_pressure;Samples;Min_cycle;Max_cycle;Signal;HPM_P1;HPM_P2
2023/05/29 00:00:54;;;;;;;17.02;11.55;;;13.60;99.90;;;;;;2104668;28;20822;-82
2023/05/29 00:01:55;;;;;;;15.02;11.35;;;13.60;99.90;;;;;;2111640;28;20073;-81
2023/05/29 00:02:55;;;;;;;14.73;11.10;;;13.60;99.90;;;;;;2113826;28;20032;-81
2023/05/29 00:03:56;;;;;;;15.55;10.98;;;13.50;99.90;;;;;;2095897;28;20124;-81
2023/05/29 00:04:57;;;;;;;18.63;11.50;;;13.50;99.90;;;;;;2088037;28;20246;-81
2023/05/29 00:05:57;;;;;;;13.75;10.55;;;13.50;99.90;;;;;;2104362;28;20036;-80
2023/05/29 00:06:58;;;;;;;15.55;10.85;;;13.50;99.90;;;;;;2102664;28;20031;-79
2023/05/29 00:07:58;;;;;;;14.05;10.60;;;13.50;99.90;;;;;;2092867;28;20569;-81
2023/05/29 00:08:59;;;;;;;15.43;10.50;;;13.50;99.90;;;;;;2096080;28;20039;-81
2023/05/29 00:10:00;;;;;;;13.90;10.57;;;13.50;99.90;;;;;;2104730;28;20031;-81
2023/05/29 00:11:00;;;;;;;16.35;10.73;;;13.40;99.90;;;;;;2104459;28;20127;-80
2023/05/29 00:12:02;;;;;;;14.73;10.45;;;13.40;99.90;;;;;;2102342;28;20059;-79
2023/05/29 00:13:03;;;;;;;13.73;10.38;;;13.40;99.90;;;;;;2104465;28;20388;-81
2023/05/29 00:14:03;;;;;;;12.98;10.27;;;13.40;99.90;;;;;;2104330;28;20127;-81
2023/05/29 00:15:05;;;;;;;12.40;9.98;;;13.30;99.90;;;;;;2113194;28;20034;-81
2023/05/29 00:16:06;;;;;;;15.02;10.02;;;13.30;99.90;;;;;;2104431;28;20032;-81
2023/05/29 00:17:07;;;;;;;13.95;10.38;;;13.30;99.90;;;;;;2096106;28;20071;-80
2023/05/29 00:18:07;;;;;;;13.65;10.50;;;13.30;99.90;;;;;;2095985;28;20051;-80
2023/05/29 00:19:08;;;;;;;13.35;9.80;;;13.20;99.90;;;;;;2095405;28;20052;-81
2023/05/29 00:20:10;;;;;;;16.33;10.43;;;13.20;99.90;;;;;;2095970;28;20036;-81
2023/05/29 00:21:14;;;;;;;17.05;10.38;;;13.20;99.90;;;;;;2088191;28;20033;-81
2023/05/29 00:22:14;;;;;;;17.52;10.30;;;13.20;99.90;;;;;;2097940;28;20042;-81
2023/05/29 00:23:15;;;;;;;13.07;10.27;;;13.20;99.90;;;;;;2096631;28;20057;-81
2023/05/29 00:24:16;;;;;;;15.23;10.20;;;13.20;99.90;;;;;;2095925;28;20020;-81
2023/05/29 00:25:18;;;;;;;12.45;9.55;;;13.10;99.90;;;;;;2104475;28;20115;-82
2023/05/29 00:26:18;;;;;;;13.90;10.48;;;13.10;99.90;;;;;;2104400;28;20107;-81
2023/05/29 00:27:25;;;;;;;14.63;10.55;;;13.10;99.90;;;;;;2091693;28;20016;-82
2023/05/29 00:28:26;;;;;;;14.05;10.45;;;13.10;99.90;;;;;;2105337;28;20051;-81
2023/05/29 00:29:27;;;;;;;14.38;10.50;;;13.10;99.90;;;;;;2095997;28;20032;-81
2023/05/29 00:30:29;;;;;;;14.70;10.57;;;13.10;99.90;;;;;;2095820;28;20032;-80
2023/05/29 00:31:30;;;;;;;14.63;10.32;;;13.10;99.90;;;;;;2099269;28;20491;-80
2023/05/29 00:32:30;;;;;;;13.40;10.32;;;13.10;99.90;;;;;;2102562;28;20032;-80
2023/05/29 00:33:31;;;;;;;14.07;10.15;;;13.10;99.90;;;;;;2087774;28;20044;-81
2023/05/29 00:34:32;;;;;;;14.48;10.25;;;13.10;99.90;;;;;;2095906;28;20025;-80
2023/05/29 00:35:32;;;;;;;14.20;10.15;;;13.00;99.90;;;;;;2103189;28;20442;-81
2023/05/29 00:36:34;;;;;;;15.63;10.82;;;13.10;99.90;;;;;;2099510;28;20130;-81
2023/05/29 00:37:35;;;;;;;14.50;10.50;;;13.10;99.90;;;;;;2102538;28;20036;-80
2023/05/29 00:38:36;;;;;;;14.93;10.55;;;13.10;99.90;;;;;;2096107;28;20467;-81
2023/05/29 00:39:36;;;;;;;14.52;10.55;;;13.10;99.90;;;;;;2095914;28;20024;-81
2023/05/29 00:40:37;;;;;;;14.43;10.38;;;13.10;99.90;;;;;;2104365;28;20040;-82
2023/05/29 00:41:37;;;;;;;14.02;10.48;;;13.10;99.90;;;;;;2112953;28;20042;-81
2023/05/29 00:42:38;;;;;;;14.70;9.98;;;13.10;99.90;;;;;;2096116;28;20559;-80
2023/05/29 00:43:39;;;;;;;14.35;10.05;;;13.00;99.90;;;;;;2100044;28;20016;-81
2023/05/29 00:44:39;;;;;;;14.57;10.60;;;13.00;99.90;;;;;;2095911;28;20056;-81
2023/05/29 00:45:40;;;;;;;14.38;10.07;;;13.00;99.90;;;;;;2104460;28;20039;-81
2023/05/29 00:46:41;;;;;;;15.95;10.80;;;13.00;99.90;;;;;;2113732;28;20031;-80
2023/05/29 00:47:41;;;;;;;16.05;10.35;;;13.00;99.90;;;;;;2102554;28;20028;-81
2023/05/29 00:48:42;;;;;;;13.60;10.27;;;12.90;99.90;;;;;;2104328;28;20024;-81
2023/05/29 00:49:43;;;;;;;13.20;9.75;;;12.90;99.90;;;;;;2104245;28;20506;-80
2023/05/29 00:50:44;;;;;;;13.82;9.90;;;12.90;99.90;;;;;;2095785;28;20115;-83
2023/05/29 00:51:45;;;;;;;15.95;10.30;;;12.90;99.90;;;;;;2104286;28;20114;-79
2023/05/29 00:52:47;;;;;;;15.10;10.10;;;12.90;99.90;;;;;;2116704;27;20102;-81
2023/05/29 00:53:50;;;;;;;14.13;10.10;;;12.80;99.90;;;;;;2113540;27;20032;-80
2023/05/29 00:54:51;;;;;;;13.88;9.65;;;12.80;99.90;;;;;;2113288;28;20143;-81
2023/05/29 00:55:52;;;;;;;14.60;9.55;;;12.80;99.90;;;;;;2095133;28;20036;-79
2023/05/29 00:56:54;;;;;;;16.85;10.40;;;12.80;99.90;;;;;;2084403;28;20032;-80
2023/05/29 00:57:55;;;;;;;16.05;10.35;;;12.70;99.90;;;;;;2108397;28;20494;-80
2023/05/29 00:58:55;;;;;;;15.07;10.13;;;12.70;99.90;;;;;;2103813;28;20036;-80
2023/05/29 00:59:57;;;;;;;17.33;10.20;;;12.70;99.90;;;;;;2103927;28;20094;-81
2023/05/29 01:00:57;;;;;;;17.65;11.15;;;12.70;99.90;;;;;;2095596;28;20892;-80
2023/05/29 01:01:59;;;;;;;18.38;10.38;;;12.60;99.90;;;;;;2085014;28;20068;-80
2023/05/29 01:03:02;;;;;;;14.43;9.77;;;12.60;99.90;;;;;;2087994;28;20032;-80
2023/05/29 01:04:08;;;;;;;14.75;10.10;;;12.60;99.90;;;;;;2095506;28;20088;-80
2023/05/29 01:05:09;;;;;;;14.75;9.77;;;12.60;99.90;;;;;;2085720;28;20037;-80
2023/05/29 01:06:10;;;;;;;15.25;9.63;;;12.60;99.90;;;;;;2104101;28;20458;-81
2023/05/29 01:07:11;;;;;;;15.93;10.48;;;12.60;99.90;;;;;;2102066;28;20465;-80
2023/05/29 01:08:12;;;;;;;17.30;9.75;;;12.60;99.90;;;;;;2101470;28;20028;-80
2023/05/29 01:09:13;;;;;;;15.57;9.70;;;12.50;99.90;;;;;;2103740;28;20031;-80
2023/05/29 01:10:14;;;;;;;15.20;9.57;;;12.50;99.90;;;;;;2086448;28;20058;-78
2023/05/29 01:11:42;;;;;;;14.73;9.93;;;12.50;99.90;;;;;;2087495;28;20066;-80
2023/05/29 01:12:57;;;;;;;17.77;9.85;;;12.50;99.90;;;;;;2096454;28;20056;-80
2023/05/29 01:14:01;;;;;;;16.25;9.68;;;12.40;99.90;;;;;;2083061;28;20104;-81
2023/05/29 01:15:44;;;;;;;17.10;9.88;;;12.40;99.90;;;;;;2104126;28;20043;-80
2023/05/29 01:17:08;;;;;;;16.23;10.40;;;12.40;99.90;;;;;;2065235;28;20509;-76
2023/05/29 01:18:20;;;;;;;15.27;10.18;;;12.40;99.90;;;;;;2087319;28;20500;-80
2023/05/29 01:19:43;;;;;;;16.40;10.13;;;12.40;99.90;;;;;;2090739;28;20027;-81
2023/05/29 01:20:56;;;;;;;16.23;10.07;;;12.40;99.90;;;;;;2085102;28;20040;-81
2023/05/29 01:22:20;;;;;;;15.57;9.65;;;12.30;99.90;;;;;;2092204;28;20079;-81
2023/05/29 01:24:00;;;;;;;15.50;9.80;;;12.20;99.90;;;;;;2090499;28;20043;-80
2023/05/29 01:25:17;;;;;;;16.67;10.02;;;12.20;99.90;;;;;;2092693;28;20503;-81
2023/05/29 01:26:51;;;;;;;14.50;9.50;;;12.20;99.90;;;;;;2098306;28;20051;-81
2023/05/29 01:27:54;;;;;;;15.45;9.75;;;12.20;99.90;;;;;;2072574;28;20080;-80
2023/05/29 01:29:00;;;;;;;14.52;9.45;;;12.20;99.90;;;;;;2087198;28;20029;-81
2023/05/29 01:30:02;;;;;;;13.50;9.57;;;12.20;99.90;;;;;;2095918;28;20040;-81
2023/05/29 01:31:04;;;;;;;15.65;10.23;;;12.20;99.90;;;;;;2087769;28;20036;-80
2023/05/29 01:32:05;;;;;;;15.50;10.10;;;12.10;99.90;;;;;;2086923;28;20407;-80
2023/05/29 01:33:06;;;;;;;17.45;10.30;;;12.10;99.90;;;;;;2095739;28;20029;-81
2023/05/29 01:34:07;;;;;;;15.80;10.25;;;12.10;99.90;;;;;;2103953;28;20111;-82
2023/05/29 01:35:08;;;;;;;13.82;9.93;;;12.10;99.90;;;;;;2112206;28;20064;-79
2023/05/29 01:36:11;;;;;;;17.02;10.45;;;12.10;99.90;;;;;;2103802;28;20552;-79
2023/05/29 01:37:11;;;;;;;14.40;9.75;;;12.00;99.90;;;;;;2104814;28;20147;-81
2023/05/29 01:38:12;;;;;;;14.50;9.65;;;12.00;99.90;;;;;;2088125;28;20407;-82
2023/05/29 01:39:13;;;;;;;16.67;9.95;;;12.00;99.90;;;;;;2095611;28;20039;-80
2023/05/29 01:40:13;;;;;;;14.27;9.13;;;12.00;99.90;;;;;;2103713;28;20144;-81
2023/05/29 01:41:15;;;;;;;12.60;9.30;;;12.00;99.90;;;;;;2095632;28;20062;-81
2023/05/29 01:42:16;;;;;;;14.60;9.55;;;12.00;99.90;;;;;;2094880;28;20519;-78
2023/05/29 01:43:17;;;;;;;13.82;9.10;;;12.00;99.90;;;;;;2095479;28;20048;-79
2023/05/29 01:44:18;;;;;;;12.70;9.00;;;11.90;99.90;;;;;;2103103;28;20036;-80
2023/05/29 01:45:21;;;;;;;14.20;8.88;;;11.90;99.90;;;;;;2095379;28;20123;-80
2023/05/29 01:46:23;;;;;;;13.95;8.73;;;11.90;99.90;;;;;;2077491;28;20400;-80
2023/05/29 01:47:24;;;;;;;13.45;8.57;;;11.90;99.90;;;;;;2095785;28;20075;-80
2023/05/29 01:48:25;;;;;;;11.02;8.48;;;11.90;99.90;;;;;;2103964;28;20032;-81
2023/05/29 01:49:27;;;;;;;11.77;9.02;;;11.90;99.90;;;;;;2095489;28;20047;-82
2023/05/29 01:50:28;;;;;;;13.23;8.98;;;11.90;99.90;;;;;;2104103;28;20523;-79
2023/05/29 01:51:31;;;;;;;12.20;8.77;;;11.90;99.90;;;;;;2101906;28;20053;-79
2023/05/29 01:52:32;;;;;;;12.75;8.85;;;11.80;99.90;;;;;;2104324;28;20020;-79
2023/05/29 01:53:32;;;;;;;12.10;8.32;;;11.90;99.90;;;;;;2095258;28;20056;-80
2023/05/29 01:54:33;;;;;;;13.32;9.02;;;11.80;99.90;;;;;;2078638;28;20075;-79
2023/05/29 01:55:34;;;;;;;13.07;8.60;;;11.80;99.90;;;;;;2087074;28;20037;-80
2023/05/29 01:56:35;;;;;;;12.35;8.45;;;11.80;99.90;;;;;;2090786;28;20120;-79
2023/05/29 01:57:37;;;;;;;11.60;8.43;;;11.80;99.90;;;;;;2086831;28;20062;-80
2023/05/29 01:58:39;;;;;;;12.75;8.75;;;11.80;99.90;;;;;;2087236;28;20029;-82
2023/05/29 01:59:41;;;;;;;13.68;8.15;;;11.80;99.90;;;;;;2095210;28;20076;-80
2023/05/29 02:00:42;;;;;;;13.35;8.60;;;11.80;99.90;;;;;;2095756;28;20032;-80
2023/05/29 02:01:42;;;;;;;11.38;7.97;;;11.70;99.90;;;;;;2102146;28;20031;-80
2023/05/29 02:02:43;;;;;;;11.88;8.35;;;11.70;99.90;;;;;;2096710;28;20039;-82
2023/05/29 02:03:43;;;;;;;11.15;8.48;;;11.70;99.90;;;;;;2096977;28;20039;-81
2023/05/29 02:04:44;;;;;;;12.20;7.78;;;11.70;99.90;;;;;;2112718;28;20042;-81
2023/05/29 02:05:45;;;;;;;11.60;7.90;;;11.70;99.90;;;;;;2104538;28;20475;-81
2023/05/29 02:06:46;;;;;;;11.52;8.30;;;11.70;99.90;;;;;;2098708;28;20107;-81
2023/05/29 02:07:46;;;;;;;11.65;8.13;;;11.70;99.90;;;;;;2111683;28;20046;-79
2023/05/29 02:08:47;;;;;;;9.93;7.68;;;11.60;99.90;;;;;;2104328;28;20553;-80
2023/05/29 02:09:47;;;;;;;12.45;8.52;;;11.60;99.90;;;;;;2104768;28;20028;-81
2023/05/29 02:10:48;;;;;;;11.55;8.32;;;11.60;99.90;;;;;;2096498;28;20060;-82
2023/05/29 02:11:49;;;;;;;11.02;8.00;;;11.60;99.90;;;;;;2099281;28;20020;-81
2023/05/29 02:12:50;;;;;;;13.25;8.20;;;11.60;99.90;;;;;;2113902;28;20020;-80
2023/05/29 02:13:51;;;;;;;9.65;7.75;;;11.60;99.90;;;;;;2105172;28;20035;-81
2023/05/29 02:14:52;;;;;;;11.75;7.95;;;11.60;99.90;;;;;;2096825;28;20059;-80
2023/05/29 02:15:52;;;;;;;11.93;8.00;;;11.50;99.90;;;;;;2092746;28;20542;-81
2023/05/29 02:16:53;;;;;;;10.40;8.00;;;11.50;99.90;;;;;;2089882;28;20478;-81
2023/05/29 02:17:54;;;;;;;10.25;7.55;;;11.50;99.90;;;;;;2087429;28;20029;-80
2023/05/29 02:18:54;;;;;;;11.35;8.48;;;11.40;99.90;;;;;;2094962;28;20037;-80
2023/05/29 02:19:55;;;;;;;12.43;8.50;;;11.40;99.90;;;;;;2087112;28;20067;-80
2023/05/29 02:20:56;;;;;;;11.50;8.27;;;11.40;99.90;;;;;;2079008;28;20030;-80
2023/05/29 02:21:56;;;;;;;10.02;8.07;;;11.40;99.90;;;;;;2076796;28;20022;-82
2023/05/29 02:22:57;;;;;;;11.10;8.30;;;11.30;99.90;;;;;;2095535;28;20029;-82
2023/05/29 02:23:59;;;;;;;12.48;8.02;;;11.30;99.90;;;;;;2103697;28;20024;-82
2023/05/29 02:24:59;;;;;;;10.43;7.90;;;11.30;99.90;;;;;;2103572;28;20506;-80
2023/05/29 02:26:00;;;;;;;11.73;7.88;;;11.30;99.90;;;;;;2103659;28;20115;-82
2023/05/29 02:27:03;;;;;;;10.93;7.95;;;11.40;99.90;;;;;;2078829;28;20021;-81
2023/05/29 02:28:03;;;;;;;11.23;7.95;;;11.40;99.90;;;;;;2086651;28;20067;-81
2023/05/29 02:29:07;;;;;;;12.50;7.90;;;11.30;99.90;;;;;;2102919;28;20047;-81
2023/05/29 02:30:08;;;;;;;10.52;7.97;;;11.30;99.90;;;;;;2103397;28;20426;-81
2023/05/29 02:31:08;;;;;;;11.20;8.02;;;11.30;99.90;;;;;;2103539;28;20052;-80
2023/05/29 02:32:11;;;;;;;10.40;7.88;;;11.30;99.90;;;;;;2110729;28;20096;-81
2023/05/29 02:33:11;;;;;;;10.80;8.05;;;11.30;99.90;;;;;;2095157;28;20519;-80
2023/05/29 02:34:12;;;;;;;10.52;7.63;;;11.30;99.90;;;;;;2087085;28;20210;-80
2023/05/29 02:35:17;;;;;;;10.60;7.63;;;11.30;99.90;;;;;;2095209;28;20509;-81
2023/05/29 02:36:17;;;;;;;10.52;7.63;;;11.20;99.90;;;;;;2086124;28;20029;-80
2023/05/29 02:37:18;;;;;;;12.00;8.35;;;11.20;99.90;;;;;;2086853;28;20120;-81
2023/05/29 02:38:19;;;;;;;11.10;8.25;;;11.20;99.90;;;;;;2094927;28;20052;-80
2023/05/29 02:39:20;;;;;;;11.07;8.10;;;11.20;99.90;;;;;;2112247;28;20047;-80
2023/05/29 02:40:21;;;;;;;11.52;7.78;;;11.20;99.90;;;;;;2112287;28;20027;-81
2023/05/29 02:41:21;;;;;;;10.57;8.02;;;11.10;99.90;;;;;;2100070;28;20020;-79
2023/05/29 02:42:24;;;;;;;12.23;7.85;;;11.10;99.90;;;;;;2081262;28;20671;-81
2023/05/29 02:43:25;;;;;;;11.35;8.23;;;11.10;99.90;;;;;;2094292;28;20021;-81
2023/05/29 02:44:26;;;;;;;11.52;8.00;;;11.10;99.90;;;;;;2103561;28;20050;-81
2023/05/29 02:45:26;;;;;;;10.55;8.20;;;11.00;99.90;;;;;;2103377;28;20040;-82
2023/05/29 02:46:28;;;;;;;10.18;7.53;;;11.10;99.90;;;;;;2093482;28;20110;-81
2023/05/29 02:47:29;;;;;;;11.07;8.18;;;11.00;99.90;;;;;;2095136;28;20032;-81
2023/05/29 02:48:31;;;;;;;11.80;8.00;;;11.00;99.90;;;;;;2086543;28;20121;-81
2023/05/29 02:49:32;;;;;;;10.35;7.50;;;11.00;99.90;;;;;;2095622;28;20032;-80
2023/05/29 02:50:32;;;;;;;8.75;7.15;;;11.00;99.90;;;;;;2103281;28;20028;-83
2023/05/29 02:51:33;;;;;;;10.43;7.78;;;11.00;99.90;;;;;;2087133;28;20021;-81
2023/05/29 02:52:33;;;;;;;10.18;7.80;;;11.00;99.90;;;;;;2097085;28;20515;-75
2023/05/29 02:53:34;;;;;;;11.60;8.10;;;10.90;99.90;;;;;;2093926;28;20024;-74
2023/05/29 02:54:35;;;;;;;11.65;7.60;;;10.90;99.90;;;;;;2103663;28;20020;-78
2023/05/29 02:55:38;;;;;;;10.20;7.45;;;10.90;99.90;;;;;;2103134;28;20032;-78
2023/05/29 02:56:39;;;;;;;11.18;8.20;;;10.90;99.90;;;;;;2104490;28;20583;-77
2023/05/29 02:57:40;;;;;;;10.27;7.47;;;10.90;99.90;;;;;;2121030;28;20110;-77
2023/05/29 02:58:41;;;;;;;12.32;7.57;;;10.80;99.90;;;;;;2112936;28;20096;-76
2023/05/29 02:59:44;;;;;;;10.65;7.95;;;10.80;99.90;;;;;;2102468;28;20068;-76
2023/05/29 03:00:44;;;;;;;11.50;8.15;;;10.80;99.90;;;;;;2103511;28;20046;-77
2023/05/29 03:01:45;;;;;;;10.10;7.70;;;10.80;99.90;;;;;;2101223;28;20024;-78
2023/05/29 03:02:46;;;;;;;9.75;7.50;;;10.80;99.90;;;;;;2094968;28;20024;-77
2023/05/29 03:03:47;;;;;;;10.50;7.78;;;10.80;99.90;;;;;;2103155;28;20035;-77
2023/05/29 03:04:52;;;;;;;10.18;7.28;;;10.90;99.90;;;;;;2103247;28;20646;-77
2023/05/29 03:05:53;;;;;;;10.77;7.47;;;10.80;99.90;;;;;;2087420;28;20029;-75
2023/05/29 03:06:54;;;;;;;14.30;8.55;;;10.80;99.90;;;;;;2095589;28;20036;-77
2023/05/29 03:07:55;;;;;;;11.30;7.78;;;10.80;99.90;;;;;;2079042;28;20511;-76
2023/05/29 03:08:56;;;;;;;11.90;7.93;;;10.90;99.90;;;;;;2086630;28;20017;-76
2023/05/29 03:09:56;;;;;;;9.90;7.50;;;10.90;99.90;;;;;;2094709;28;20037;-76
2023/05/29 03:10:57;;;;;;;11.85;7.88;;;10.90;99.90;;;;;;2094517;28;20060;-76
2023/05/29 03:11:57;;;;;;;9.25;7.45;;;10.90;99.90;;;;;;2095675;28;20085;-75
2023/05/29 03:12:58;;;;;;;11.23;7.57;;;10.90;99.90;;;;;;2104455;28;20032;-76
2023/05/29 03:13:59;;;;;;;12.82;8.52;;;10.90;99.90;;;;;;2102882;28;20406;-76
2023/05/29 03:14:59;;;;;;;11.13;8.48;;;10.90;99.90;;;;;;2097405;28;20055;-76
2023/05/29 03:16:02;;;;;;;11.75;8.27;;;10.90;99.90;;;;;;2086462;28;20432;-76
2023/05/29 03:17:05;;;;;;;11.05;7.97;;;10.90;99.90;;;;;;2092231;28;20029;-76
2023/05/29 03:18:05;;;;;;;11.65;7.90;;;10.90;99.90;;;;;;2102477;28;20274;-76
2023/05/29 03:19:07;;;;;;;11.07;8.18;;;10.90;99.90;;;;;;2094723;28;20031;-76
2023/05/29 03:20:08;;;;;;;11.48;8.05;;;10.90;99.90;;;;;;2094541;28;20072;-77
2023/05/29 03:21:09;;;;;;;10.20;7.93;;;11.00;99.90;;;;;;2086398;28;20041;-76
2023/05/29 03:22:09;;;;;;;10.75;7.95;;;11.00;99.90;;;;;;2085153;28;20112;-77
2023/05/29 03:23:11;;;;;;;12.88;8.75;;;11.00;99.90;;;;;;2094895;28;20040;-76
2023/05/29 03:24:15;;;;;;;10.68;8.30;;;11.00;99.90;;;;;;2102350;28;20028;-77
2023/05/29 03:25:16;;;;;;;12.52;8.15;;;10.90;99.90;;;;;;2094963;28;20021;-77
2023/05/29 03:26:18;;;;;;;12.48;8.23;;;10.90;99.90;;;;;;2093244;28;20029;-77
2023/05/29 03:27:19;;;;;;;10.32;7.50;;;11.00;99.90;;;;;;2094874;28;20044;-76
2023/05/29 03:28:27;;;;;;;12.80;8.20;;;11.00;99.90;;;;;;2096096;28;20130;-77
2023/05/29 03:29:29;;;;;;;10.93;7.95;;;11.00;99.90;;;;;;2102221;28;20017;-76
2023/05/29 03:30:30;;;;;;;10.18;7.65;;;11.00;99.90;;;;;;2095005;28;20028;-78
2023/05/29 03:31:32;;;;;;;10.98;7.82;;;11.00;99.90;;;;;;2098805;28;20028;-77
2023/05/29 03:32:32;;;;;;;14.32;8.20;;;11.10;99.90;;;;;;2087796;28;20087;-77
2023/05/29 03:33:34;;;;;;;10.65;7.95;;;11.10;99.90;;;;;;2095191;28;20547;-77
2023/05/29 03:34:49;;;;;;;9.43;7.47;;;11.10;99.90;;;;;;2098336;28;20059;-77
2023/05/29 03:35:50;;;;;;;10.32;8.27;;;11.10;99.90;;;;;;2087870;28;20450;-77
2023/05/29 03:36:50;;;;;;;11.45;8.18;;;11.10;99.90;;;;;;2090913;28;20059;-77
2023/05/29 03:37:51;;;;;;;13.70;8.00;;;11.10;99.90;;;;;;2087989;28;20025;-77
2023/05/29 03:38:52;;;;;;;11.48;7.82;;;11.20;99.90;;;;;;2103867;28;20032;-77
2023/05/29 03:39:53;;;;;;;11.50;8.32;;;11.10;99.90;;;;;;2096537;28;20039;-77
2023/05/29 03:40:54;;;;;;;12.25;8.55;;;11.10;99.90;;;;;;2096209;28;20483;-77
2023/05/29 03:41:55;;;;;;;11.32;8.55;;;11.20;99.90;;;;;;2094284;28;20052;-77
2023/05/29 03:42:56;;;;;;;13.73;9.00;;;11.20;99.90;;;;;;2104626;28;20020;-76
2023/05/29 03:43:57;;;;;;;13.38;9.27;;;11.20;99.90;;;;;;2096144;28;20135;-76
2023/05/29 03:45:00;;;;;;;12.15;9.13;;;11.20;99.90;;;;;;2104384;28;20024;-77
2023/05/29 03:46:02;;;;;;;12.50;9.63;;;11.20;99.90;;;;;;2096182;28;20025;-78
2023/05/29 03:47:05;;;;;;;15.32;9.35;;;11.20;99.90;;;;;;2087769;28;20024;-78
2023/05/29 03:48:08;;;;;;;14.52;9.23;;;11.20;99.90;;;;;;2096007;28;20031;-77
2023/05/29 03:49:09;;;;;;;13.38;9.32;;;11.20;99.90;;;;;;2096017;28;20549;-77
2023/05/29 03:50:14;;;;;;;13.18;9.55;;;11.20;99.90;;;;;;2096143;28;20103;-78
2023/05/29 03:51:16;;;;;;;13.05;10.15;;;11.30;99.90;;;;;;2096487;28;20099;-78
2023/05/29 03:52:16;;;;;;;16.75;9.88;;;11.30;99.90;;;;;;2103202;28;20024;-77
2023/05/29 03:53:17;;;;;;;15.05;10.10;;;11.30;99.90;;;;;;2105098;28;20032;-77
2023/05/29 03:54:17;;;;;;;13.13;9.85;;;11.30;99.90;;;;;;2096043;28;20036;-77
2023/05/29 03:55:19;;;;;;;13.75;9.30;;;11.30;99.90;;;;;;2096178;28;20025;-76
2023/05/29 03:56:21;;;;;;;12.40;9.20;;;11.30;99.90;;;;;;2094467;28;20029;-76
2023/05/29 03:57:21;;;;;;;11.95;9.00;;;11.30;99.90;;;;;;2109418;28;20483;-76
2023/05/29 03:58:23;;;;;;;11.15;9.00;;;11.40;99.90;;;;;;2104197;28;20034;-76
2023/05/29 03:59:24;;;;;;;11.77;8.73;;;11.40;99.90;;;;;;2087428;28;20029;-76
2023/05/29 04:00:24;;;;;;;14.35;9.57;;;11.40;99.90;;;;;;2087967;28;20041;-77
2023/05/29 04:01:26;;;;;;;11.50;9.18;;;11.50;99.90;;;;;;2092647;28;20028;-77
2023/05/29 04:02:28;;;;;;;15.07;10.13;;;11.60;99.90;;;;;;2087930;28;20025;-78
2023/05/29 04:03:30;;;;;;;14.23;9.80;;;11.60;99.90;;;;;;2095408;28;20117;-78
2023/05/29 04:04:32;;;;;;;16.33;9.48;;;11.60;99.90;;;;;;2104374;28;20043;-79
2023/05/29 04:05:33;;;;;;;13.27;9.45;;;11.70;99.90;;;;;;2099995;28;20582;-78
2023/05/29 04:06:38;;;;;;;13.93;9.45;;;11.70;99.90;;;;;;2094274;28;20021;-77
2023/05/29 04:07:38;;;;;;;13.70;9.20;;;11.90;99.90;;;;;;2088459;28;20090;-77
2023/05/29 04:08:39;;;;;;;10.75;8.43;;;12.10;99.90;;;;;;2082983;28;20025;-77
2023/05/29 04:09:40;;;;;;;11.85;8.73;;;12.50;99.90;;;;;;2087825;28;20037;-77
2023/05/29 04:10:40;;;;;;;13.05;8.95;;;12.80;99.90;;;;;;2087677;28;20039;-77
2023/05/29 04:11:41;;;;;;;13.02;8.77;;;13.20;99.90;;;;;;2085794;28;20029;-77
2023/05/29 04:12:42;;;;;;;10.40;8.40;;;13.50;99.90;;;;;;2095991;28;20035;-77
2023/05/29 04:13:42;;;;;;;9.75;7.20;;;13.80;99.90;;;;;;2104235;28;20100;-77
2023/05/29 04:14:44;;;;;;;10.10;7.93;;;14.20;99.90;;;;;;2104074;28;20036;-78
2023/05/29 04:15:44;;;;;;;11.35;7.80;;;14.50;99.90;;;;;;2095768;28;20028;-77
2023/05/29 04:16:45;;;;;;;11.80;8.02;;;14.80;99.90;;;;;;2102558;28;20263;-77
2023/05/29 04:17:45;;;;;;;11.52;7.95;;;15.00;99.90;;;;;;2095967;28;20056;-77
2023/05/29 04:18:46;;;;;;;10.90;7.72;;;15.30;99.90;;;;;;2087669;28;20072;-77
2023/05/29 04:19:47;;;;;;;11.20;7.80;;;15.50;99.90;;;;;;2095689;28;20032;-76
2023/05/29 04:20:47;;;;;;;10.93;7.70;;;15.70;99.90;;;;;;2104175;28;20024;-77
2023/05/29 04:21:48;;;;;;;10.32;7.65;;;15.80;99.90;;;;;;2093763;28;20032;-77
2023/05/29 04:22:49;;;;;;;9.50;7.95;;;15.90;99.90;;;;;;2095836;28;20360;-77
2023/05/29 04:23:50;;;;;;;10.75;7.25;;;16.10;99.90;;;;;;2095505;28;20044;-77
2023/05/29 04:24:50;;;;;;;12.23;7.80;;;16.30;99.90;;;;;;2095493;28;20489;-77
2023/05/29 04:25:52;;;;;;;8.63;6.88;;;16.50;99.90;;;;;;2087478;28;20111;-77
2023/05/29 04:27:00;;;;;;;9.13;7.10;;;16.60;99.90;;;;;;2091939;28;20032;-77
2023/05/29 04:28:02;;;;;;;10.15;7.10;;;16.90;99.90;;;;;;2095792;28;20044;-77
2023/05/29 04:29:03;;;;;;;8.32;6.93;;;17.00;99.90;;;;;;2095705;28;20086;-77
2023/05/29 04:30:07;;;;;;;9.55;6.85;;;17.20;99.90;;;;;;2095994;28;20038;-77
2023/05/29 04:31:14;;;;;;;10.60;7.30;;;17.30;99.90;;;;;;2088683;28;20033;-77
2023/05/29 04:32:15;;;;;;;9.52;7.10;;;17.40;99.90;;;;;;2094120;28;20152;-77
2023/05/29 04:33:17;;;;;;;12.02;7.00;;;17.50;99.90;;;;;;2095634;28;20110;-76
2023/05/29 04:34:22;;;;;;;9.93;6.78;;;17.50;99.90;;;;;;2104031;28;20028;-77
2023/05/29 04:35:23;;;;;;;11.68;8.68;;;17.60;99.90;;;;;;2095820;28;20389;-77
2023/05/29 04:36:32;;;;;;;12.98;8.27;;;17.70;99.90;;;;;;2095037;28;20028;-77
2023/05/29 04:37:43;;;;;;;10.65;7.70;;;17.90;99.90;;;;;;2095871;28;20028;-77
2023/05/29 04:38:44;;;;;;;10.45;7.28;;;18.00;98.70;;;;;;2087311;28;20116;-76
2023/05/29 04:39:46;;;;;;;10.50;7.53;;;18.00;98.40;;;;;;2095766;28;20036;-76
2023/05/29 04:40:57;;;;;;;9.05;6.90;;;18.10;97.70;;;;;;2093583;28;20119;-76
2023/05/29 04:42:01;;;;;;;9.88;7.30;;;18.20;97.20;;;;;;2099645;28;20026;-76
2023/05/29 04:43:05;;;;;;;8.73;7.45;;;18.30;96.50;;;;;;2096077;28;20028;-77
2023/05/29 04:44:18;;;;;;;9.63;7.55;;;18.40;95.60;;;;;;2089397;28;20068;-77
2023/05/29 04:45:22;;;;;;;9.57;7.32;;;18.40;95.10;;;;;;2087883;28;20055;-76
2023/05/29 04:46:24;;;;;;;9.35;7.20;;;18.40;95.30;;;;;;2086138;28;20035;-78
2023/05/29 04:47:26;;;;;;;9.70;7.72;;;18.50;94.70;;;;;;2095906;28;20036;-77
2023/05/29 04:48:26;;;;;;;9.95;7.25;;;18.60;94.00;;;;;;2095676;28;20558;-77
2023/05/29 04:49:27;;;;;;;9.43;7.55;;;18.70;93.70;;;;;;2095651;28;20146;-77
2023/05/29 04:50:30;;;;;;;10.85;7.97;;;18.80;93.10;;;;;;2095797;28;20048;-77
2023/05/29 04:51:31;;;;;;;10.68;8.18;;;18.70;92.40;;;;;;2092101;28;20067;-77
2023/05/29 04:52:32;;;;;;;10.43;8.15;;;18.70;92.30;;;;;;2087526;28;20578;-78
2023/05/29 04:53:33;;;;;;;9.18;7.75;;;18.70;92.30;;;;;;2103275;28;20034;-78
2023/05/29 04:54:35;;;;;;;12.10;7.53;;;18.70;92.20;;;;;;2095874;28;20535;-77
2023/05/29 04:55:36;;;;;;;9.32;7.40;;;18.80;92.00;;;;;;2095742;28;20082;-78
2023/05/29 04:56:39;;;;;;;11.32;8.20;;;18.80;91.90;;;;;;2096551;28;20028;-78
2023/05/29 04:57:41;;;;;;;11.38;7.80;;;18.80;91.40;;;;;;2096549;28;20116;-78
2023/05/29 04:58:44;;;;;;;10.93;7.68;;;18.80;91.60;;;;;;2095958;28;20176;-78
2023/05/29 04:59:44;;;;;;;9.80;7.80;;;18.90;91.20;;;;;;2100801;28;20434;-77
2023/05/29 05:00:47;;;;;;;10.10;7.60;;;19.00;90.80;;;;;;2100812;28;20032;-78
2023/05/29 05:01:48;;;;;;;8.82;7.25;;;18.90;90.50;;;;;;2093373;28;20559;-78
2023/05/29 05:02:49;;;;;;;9.05;7.40;;;18.80;90.90;;;;;;2099901;28;20051;-78
2023/05/29 05:03:50;;;;;;;9.88;7.43;;;18.80;90.90;;;;;;2087374;28;20044;-78
2023/05/29 05:04:51;;;;;;;8.52;7.25;;;18.80;91.00;;;;;;2094765;28;20035;-78
2023/05/29 05:05:51;;;;;;;9.88;7.50;;;18.90;90.60;;;;;;2095571;28;20036;-76
2023/05/29 05:06:52;;;;;;;10.43;6.97;;;19.00;90.30;;;;;;2088218;28;20507;-76
2023/05/29 05:07:52;;;;;;;11.75;7.32;;;19.00;90.10;;;;;;2084500;28;20048;-77
2023/05/29 05:08:53;;;;;;;8.57;7.15;;;19.00;90.10;;;;;;2103994;28;20059;-77
2023/05/29 05:09:54;;;;;;;12.27;7.35;;;19.10;89.30;;;;;;2103721;28;20513;-78
2023/05/29 05:11:01;;;;;;;9.10;6.72;;;19.20;88.10;;;;;;2087910;28;20032;-77
2023/05/29 05:12:02;;;;;;;9.50;6.57;;;19.30;88.10;;;;;;2093209;28;20058;-77
2023/05/29 05:13:07;;;;;;;8.95;6.63;;;19.60;86.80;;;;;;2087394;28;20028;-77
2023/05/29 05:14:07;;;;;;;9.05;7.00;;;19.80;85.80;;;;;;2095900;28;20120;-77
2023/05/29 05:15:08;;;;;;;10.35;8.55;;;20.00;83.80;;;;;;2093970;28;20047;-77
2023/05/29 05:16:09;;;;;;;9.82;7.45;;;20.00;83.10;;;;;;2095479;28;20036;-77
2023/05/29 05:17:12;;;;;;;10.10;7.20;;;20.10;82.30;;;;;;2101353;28;20035;-77
2023/05/29 05:18:13;;;;;;;10.10;7.38;;;20.20;81.30;;;;;;2095819;28;20055;-77
2023/05/29 05:19:16;;;;;;;9.05;7.53;;;20.20;80.40;;;;;;2103872;28;20024;-77
2023/05/29 05:20:18;;;;;;;9.48;7.43;;;20.30;80.20;;;;;;2095704;28;20047;-77